Time;durP1;ratioP1;P1;durP2;ratioP2;P2;SDS_P1;SDS_P2;PMS_P1;PMS_P2;Temp;Humidity;BMP_temperature;BMP_pressure;BME280_temperature;BME280_humidity;BME280_pressure;Samples;Min_cycle;Max_cycle;Signal;HPM_P1;HPM_P2
2023/10/30 00:02:07;;;;;;;5.25;1.05;;;;;;;9.07;79.00;97763.25;4989401;28;20038;-52
2023/10/30 00:04:34;;;;;;;5.60;1.67;;;;;;;9.08;78.54;97762.34;4990526;28;20054;-51
2023/10/30 00:07:01;;;;;;;2.67;1.15;;;;;;;9.09;78.63;97766.63;4999641;28;20041;-50
2023/10/30 00:09:28;;;;;;;10.95;1.42;;;;;;;9.07;78.41;97765.84;4997706;28;20065;-46
2023/10/30 00:11:55;;;;;;;10.98;1.35;;;;;;;9.05;78.06;97757.31;4997849;28;20038;-45
2023/10/30 00:14:21;;;;;;;5.28;1.45;;;;;;;9.05;79.07;97767.63;4995312;28;20100;-49
2023/10/30 00:16:48;;;;;;;2.15;0.63;;;;;;;9.02;78.44;97762.56;4999553;28;20045;-48
2023/10/30 00:19:15;;;;;;;8.10;1.17;;;;;;;8.97;78.44;97766.16;4991461;28;20050;-50
2023/10/30 00:21:41;;;;;;;6.95;1.27;;;;;;;8.97;78.50;97766.16;4993239;28;20054;-48
2023/10/30 00:24:09;;;;;;;4.57;0.93;;;;;;;8.97;78.46;97765.28;4998076;28;20050;-48
2023/10/30 00:26:35;;;;;;;7.13;1.50;;;;;;;8.99;78.62;97759.19;4995825;28;20411;-49
2023/10/30 00:29:03;;;;;;;3.25;0.98;;;;;;;9.02;78.86;97771.16;4990372;28;20053;-49
2023/10/30 00:31:30;;;;;;;8.18;1.17;;;;;;;9.06;78.54;97770.19;4989710;28;20077;-49
2023/10/30 00:33:56;;;;;;;4.68;1.00;;;;;;;9.09;78.93;97774.38;4993394;28;20057;-47
2023/10/30 00:36:23;;;;;;;6.68;1.42;;;;;;;9.11;79.30;97775.16;4997613;28;20120;-44
2023/10/30 00:38:50;;;;;;;10.95;0.93;;;;;;;9.12;79.04;97782.03;4998409;28;20050;-49
2023/10/30 00:41:17;;;;;;;2.03;1.08;;;;;;;9.14;79.14;97782.81;4988933;28;20105;-49
2023/10/30 00:43:43;;;;;;;3.35;0.68;;;;;;;9.17;78.95;97782.72;4999166;28;20048;-45
2023/10/30 00:46:10;;;;;;;5.40;1.58;;;;;;;9.19;78.57;97783.50;4983299;28;20050;-46
2023/10/30 00:48:37;;;;;;;7.85;1.65;;;;;;;9.19;78.67;97782.66;4986759;28;20080;-47
2023/10/30 00:51:04;;;;;;;7.32;1.30;;;;;;;9.19;78.53;97783.50;4994227;28;20050;-51
2023/10/30 00:53:30;;;;;;;4.75;0.80;;;;;;;9.18;78.66;97779.22;4989569;28;20078;-46
2023/10/30 00:55:57;;;;;;;5.07;1.05;;;;;;;9.21;78.72;97789.47;4991030;28;20042;-48
2023/10/30 00:58:23;;;;;;;6.85;1.00;;;;;;;9.22;78.04;97785.16;4993934;28;20145;-52
2023/10/30 01:00:50;;;;;;;6.03;0.80;;;;;;;9.22;78.87;97780.00;4991006;28;20050;-51
2023/10/30 01:03:23;;;;;;;5.03;1.10;;;;;;;9.24;78.63;97779.03;4989549;28;20134;-51
2023/10/30 01:05:59;;;;;;;6.82;1.15;;;;;;;9.24;79.00;97784.22;4980010;28;20148;-45
2023/10/30 01:08:27;;;;;;;4.85;1.33;;;;;;;9.25;78.99;97780.72;5005881;28;20891;-45
2023/10/30 01:10:56;;;;;;;2.47;0.70;;;;;;;9.24;78.74;97784.22;4990479;28;20054;-47
2023/10/30 01:13:23;;;;;;;4.93;1.05;;;;;;;9.24;78.79;97786.78;4985948;28;20042;-44
2023/10/30 01:15:54;;;;;;;7.53;1.20;;;;;;;9.28;78.85;97789.28;4988647;28;20049;-43
2023/10/30 01:18:22;;;;;;;5.40;1.08;;;;;;;9.25;79.18;97788.47;4994239;28;20503;-49
2023/10/30 01:20:49;;;;;;;6.32;0.93;;;;;;;9.28;78.55;97789.28;4993674;28;20377;-50
2023/10/30 01:23:16;;;;;;;7.35;0.95;;;;;;;9.26;78.98;97784.97;4989831;28;20053;-45
2023/10/30 01:25:46;;;;;;;6.05;1.92;;;;;;;9.28;78.56;97800.44;4990507;28;20042;-50
2023/10/30 01:28:12;;;;;;;3.55;0.95;;;;;;;9.30;78.28;97795.22;4993919;28;20056;-47
2023/10/30 01:30:39;;;;;;;8.88;1.50;;;;;;;9.30;78.02;97797.78;4997485;28;20050;-46
2023/10/30 01:33:06;;;;;;;5.55;1.15;;;;;;;9.30;78.43;97803.81;4989712;28;20230;-46
2023/10/30 01:35:33;;;;;;;4.43;1.05;;;;;;;9.29;78.89;97790.94;4993056;28;20165;-50
2023/10/30 01:38:00;;;;;;;7.18;0.80;;;;;;;9.26;78.67;97797.91;4988599;28;20426;-52
2023/10/30 01:40:26;;;;;;;2.45;0.80;;;;;;;9.26;78.59;97792.72;4997981;28;20061;-46
2023/10/30 01:42:53;;;;;;;8.43;2.20;;;;;;;9.25;78.99;97801.38;4980259;28;20049;-51
2023/10/30 01:45:20;;;;;;;3.72;1.55;;;;;;;9.24;78.94;97799.69;4986848;28;20043;-46
2023/10/30 01:47:48;;;;;;;6.18;0.60;;;;;;;9.24;79.45;97804.88;4995121;28;20050;-50
2023/10/30 01:50:16;;;;;;;5.82;0.75;;;;;;;9.26;78.99;97803.06;4991302;28;20038;-45
2023/10/30 01:52:44;;;;;;;7.88;1.05;;;;;;;9.28;79.09;97809.94;4993542;28;20132;-47
2023/10/30 01:55:12;;;;;;;7.65;0.60;;;;;;;9.26;78.53;97810.81;4987120;28;20471;-50
2023/10/30 01:57:39;;;;;;;5.95;1.52;;;;;;;9.27;78.72;97806.50;4997162;28;20052;-49
2023/10/30 02:00:09;;;;;;;5.18;0.43;;;;;;;9.27;78.88;97814.25;4987129;28;20403;-49
2023/10/30 02:02:37;;;;;;;;;;;;;;;9.15;79.20;97810.31;4988910;28;20048;-46
2023/10/30 02:05:08;;;;;;;5.63;0.55;;;;;;;9.23;78.89;97812.66;4990553;28;20011;-47
2023/10/30 02:07:36;;;;;;;4.15;0.52;;;;;;;9.24;79.29;97819.50;4992022;28;20046;-48
2023/10/30 02:10:03;;;;;;;4.60;0.45;;;;;;;9.23;79.09;97805.75;4995951;28;20384;-50
2023/10/30 02:12:30;;;;;;;6.15;1.33;;;;;;;9.23;79.26;97808.31;4986125;28;20419;-45
2023/10/30 02:14:57;;;;;;;5.07;0.65;;;;;;;9.25;79.21;97806.56;4985683;28;20530;-51
2023/10/30 02:17:24;;;;;;;7.22;0.82;;;;;;;9.25;79.25;97806.56;4998833;28;20562;-47
2023/10/30 02:19:51;;;;;;;4.72;1.25;;;;;;;9.26;78.83;97807.41;4994286;28;20733;-44
2023/10/30 02:22:17;;;;;;;6.25;0.88;;;;;;;9.26;79.23;97807.41;4988905;28;20504;-51
2023/10/30 02:24:44;;;;;;;3.33;0.73;;;;;;;9.26;79.09;97797.91;4984748;28;20139;-48
2023/10/30 02:27:11;;;;;;;8.18;1.30;;;;;;;9.25;78.95;97793.63;4991638;28;20108;-46
2023/10/30 02:29:37;;;;;;;5.72;0.77;;;;;;;9.28;79.16;97789.28;5001713;28;20070;-47
2023/10/30 02:32:04;;;;;;;1.15;0.60;;;;;;;9.26;79.16;97792.72;4985920;28;20462;-49
2023/10/30 02:34:31;;;;;;;6.65;0.77;;;;;;;9.28;79.24;97794.44;4991433;28;20061;-51
2023/10/30 02:36:58;;;;;;;2.85;0.60;;;;;;;9.26;79.31;97787.56;4988530;28;20055;-47
2023/10/30 02:39:32;;;;;;;8.98;0.70;;;;;;;9.26;79.35;97781.56;4986830;28;20042;-49
2023/10/30 02:42:01;;;;;;;1.75;0.95;;;;;;;9.26;79.51;97784.97;4989561;28;20046;-47
2023/10/30 02:44:28;;;;;;;3.13;1.00;;;;;;;9.28;79.52;97786.69;4991135;28;20571;-48
2023/10/30 02:46:56;;;;;;;8.80;0.88;;;;;;;9.27;79.54;97778.09;4991742;28;20161;-48
2023/10/30 02:49:23;;;;;;;6.93;0.73;;;;;;;9.25;79.36;97774.69;4992244;28;20050;-51
2023/10/30 02:51:49;;;;;;;3.22;0.50;;;;;;;9.25;79.48;97780.72;4981237;28;20392;-43
2023/10/30 02:54:16;;;;;;;4.22;0.82;;;;;;;9.25;79.86;97777.28;4991339;28;20514;-50
2023/10/30 02:56:43;;;;;;;5.15;1.27;;;;;;;9.24;79.28;97779.03;4993511;28;20150;-50
2023/10/30 02:59:10;;;;;;;1.67;0.70;;;;;;;9.24;79.30;97780.75;5003154;28;20051;-50
2023/10/30 03:01:36;;;;;;;9.65;1.42;;;;;;;9.25;79.63;97782.44;4991543;28;20043;-52
2023/10/30 03:04:04;;;;;;;3.92;1.10;;;;;;;9.23;78.70;97772.16;4975323;28;20518;-50
2023/10/30 03:06:31;;;;;;;6.38;0.93;;;;;;;9.22;79.46;97775.66;4995415;28;20058;-46
2023/10/30 03:08:58;;;;;;;6.82;1.20;;;;;;;9.24;79.87;97779.03;4994907;28;20050;-45
2023/10/30 03:11:25;;;;;;;7.40;0.75;;;;;;;9.24;79.69;97780.75;4988221;28;20121;-46
2023/10/30 03:13:52;;;;;;;6.32;0.68;;;;;;;9.24;79.45;97779.03;4995841;28;20046;-46
2023/10/30 03:16:18;;;;;;;5.63;0.98;;;;;;;9.24;80.08;97773.88;4991328;28;20043;-50
2023/10/30 03:18:45;;;;;;;3.35;0.40;;;;;;;9.24;79.47;97784.22;4988712;28;20510;-47
2023/10/30 03:21:11;;;;;;;9.02;1.35;;;;;;;9.24;79.30;97773.03;4992894;28;20577;-50
2023/10/30 03:23:38;;;;;;;3.70;1.60;;;;;;;9.22;79.52;97775.66;4998626;28;20563;-45
2023/10/30 03:26:05;;;;;;;2.75;0.43;;;;;;;9.23;79.79;97772.16;4994875;28;20105;-49
2023/10/30 03:28:31;;;;;;;2.78;0.65;;;;;;;9.23;79.68;97772.16;4999504;28;20046;-50
2023/10/30 03:31:07;;;;;;;5.55;0.75;;;;;;;9.20;79.57;97772.28;4998636;28;20046;-47
2023/10/30 03:33:34;;;;;;;4.43;1.52;;;;;;;9.19;79.59;97777.50;4994585;28;20057;-50
2023/10/30 03:36:01;;;;;;;3.80;0.68;;;;;;;9.19;79.94;97768.00;4996280;28;20541;-49
2023/10/30 03:38:28;;;;;;;5.28;1.20;;;;;;;9.17;79.29;97782.72;4991371;28;20057;-51
2023/10/30 03:40:56;;;;;;;7.00;0.90;;;;;;;9.16;79.85;97775.03;4983602;28;20050;-47
2023/10/30 03:43:22;;;;;;;5.05;1.35;;;;;;;9.14;79.36;97793.16;4991462;28;20043;-45
2023/10/30 03:45:49;;;;;;;6.47;1.15;;;;;;;9.14;79.62;97798.31;4996832;28;20054;-50
2023/10/30 03:48:16;;;;;;;6.10;1.05;;;;;;;9.11;79.57;97799.25;4991811;28;20411;-49
2023/10/30 03:50:42;;;;;;;5.22;2.17;;;;;;;9.11;79.46;97795.81;4991521;28;20100;-47
2023/10/30 03:53:09;;;;;;;6.68;0.85;;;;;;;9.09;79.38;97795.03;4998706;28;20534;-48
2023/10/30 03:55:36;;;;;;;3.08;0.75;;;;;;;9.08;79.67;97793.34;5003381;28;20056;-47
2023/10/30 03:58:04;;;;;;;5.80;0.80;;;;;;;9.07;79.38;97808.00;4987845;28;20050;-49
2023/10/30 04:00:31;;;;;;;7.10;1.27;;;;;;;9.06;79.25;97805.47;4990519;28;20053;-49
2023/10/30 04:02:57;;;;;;;7.40;0.80;;;;;;;9.04;79.50;97808.09;4983486;28;20451;-50
2023/10/30 04:05:24;;;;;;;3.08;0.75;;;;;;;9.03;79.87;97810.72;4996064;28;20056;-48
2023/10/30 04:07:51;;;;;;;3.95;1.35;;;;;;;9.03;79.51;97815.91;4990815;28;20069;-45
2023/10/30 04:10:17;;;;;;;7.75;0.40;;;;;;;9.03;79.69;97826.22;4995081;28;20403;-50
2023/10/30 04:12:44;;;;;;;8.40;0.70;;;;;;;9.03;79.19;97826.22;4999651;28;20045;-48
2023/10/30 04:15:11;;;;;;;5.55;1.65;;;;;;;9.03;79.92;97821.91;4984364;28;20054;-46
2023/10/30 04:17:38;;;;;;;6.55;1.38;;;;;;;9.06;79.94;97826.13;4989693;28;20525;-45
2023/10/30 04:20:06;;;;;;;5.15;0.65;;;;;;;9.07;79.64;97827.81;4990046;28;20073;-47
2023/10/30 04:22:37;;;;;;;7.47;1.25;;;;;;;9.08;79.50;97819.16;5000443;28;20042;-48
2023/10/30 04:25:06;;;;;;;7.50;1.08;;;;;;;9.07;79.24;97817.47;4985729;28;20057;-45
2023/10/30 04:27:34;;;;;;;3.03;0.90;;;;;;;9.08;79.84;97822.59;4988870;28;20638;-45
2023/10/30 04:30:02;;;;;;;2.22;0.75;;;;;;;9.10;79.96;97828.56;4999800;28;20050;-47
2023/10/30 04:32:28;;;;;;;7.07;0.88;;;;;;;9.13;79.45;97831.03;4999234;28;20054;-51
2023/10/30 04:34:55;;;;;;;5.97;0.90;;;;;;;9.15;79.65;97838.72;4982917;28;20519;-48
2023/10/30 04:37:22;;;;;;;4.97;0.95;;;;;;;9.17;80.00;97839.53;4983691;28;20543;-47
2023/10/30 04:39:49;;;;;;;4.85;0.85;;;;;;;9.18;80.45;97841.22;4981592;28;20424;-52
2023/10/30 04:42:16;;;;;;;6.28;0.90;;;;;;;9.17;79.97;97842.13;4980303;28;20066;-51
2023/10/30 04:44:43;;;;;;;4.53;0.85;;;;;;;9.16;79.54;97843.03;4985636;28;20671;-48
2023/10/30 04:47:09;;;;;;;7.82;0.93;;;;;;;9.14;79.75;97842.22;4992721;28;20415;-50
2023/10/30 04:49:37;;;;;;;2.72;0.82;;;;;;;9.16;79.96;97852.50;4982820;28;20050;-48
2023/10/30 04:52:05;;;;;;;8.70;1.48;;;;;;;9.13;79.71;97850.88;4990391;28;20058;-45
2023/10/30 04:54:31;;;;;;;8.35;0.70;;;;;;;9.11;79.84;97847.47;4994534;28;20053;-46
2023/10/30 04:56:58;;;;;;;4.22;0.88;;;;;;;9.11;80.18;97844.88;4997609;28;20096;-47
2023/10/30 04:59:25;;;;;;;1.92;0.93;;;;;;;9.10;80.23;97844.06;4998281;28;20488;-47
2023/10/30 05:01:51;;;;;;;4.85;0.57;;;;;;;9.10;79.72;97853.53;4994615;28;20050;-49
2023/10/30 05:04:18;;;;;;;4.93;0.88;;;;;;;9.09;79.98;97857.84;4990865;28;20049;-47
2023/10/30 05:06:46;;;;;;;2.38;1.00;;;;;;;9.09;79.92;97862.19;4994210;28;20133;-46
2023/10/30 05:09:13;;;;;;;4.88;0.90;;;;;;;9.07;79.64;97858.78;4985857;28;20050;-46
2023/10/30 05:11:40;;;;;;;5.63;0.63;;;;;;;9.06;79.78;97867.44;4993140;28;20132;-46
2023/10/30 05:14:07;;;;;;;3.58;0.65;;;;;;;9.05;79.86;97866.59;4987744;28;20085;-49
2023/10/30 05:16:35;;;;;;;3.25;0.68;;;;;;;9.04;79.98;97870.06;4993209;28;20045;-51
2023/10/30 05:19:02;;;;;;;5.25;0.93;;;;;;;9.03;79.44;97864.97;4995302;28;20053;-44
2023/10/30 05:21:29;;;;;;;4.50;0.57;;;;;;;9.01;79.66;97870.16;5015676;28;20515;-46
2023/10/30 05:23:56;;;;;;;2.70;0.95;;;;;;;8.99;79.81;97875.38;4985367;28;20045;-51
2023/10/30 05:26:22;;;;;;;3.83;0.50;;;;;;;8.99;79.61;97872.78;4995804;28;20176;-46
2023/10/30 05:28:49;;;;;;;2.55;0.95;;;;;;;8.97;79.52;97877.19;4989519;28;20042;-47
2023/10/30 05:31:16;;;;;;;2.17;0.82;;;;;;;8.95;79.63;97878.94;4991454;28;20108;-46
2023/10/30 05:33:43;;;;;;;7.30;1.15;;;;;;;8.93;79.60;97883.31;4989754;28;20091;-49
2023/10/30 05:36:10;;;;;;;5.90;0.68;;;;;;;8.92;79.42;97881.63;4989743;28;20062;-51
2023/10/30 05:38:36;;;;;;;3.50;0.80;;;;;;;8.90;79.82;97887.72;4992360;28;20068;-49
2023/10/30 05:41:03;;;;;;;5.50;0.77;;;;;;;8.87;79.63;97888.66;4994106;28;20050;-46
2023/10/30 05:43:30;;;;;;;5.45;1.27;;;;;;;8.83;79.40;97887.94;4997121;28;20112;-44
2023/10/30 05:45:57;;;;;;;2.53;0.55;;;;;;;8.81;79.23;97888.88;4986409;28;20050;-46
2023/10/30 05:48:24;;;;;;;1.48;0.57;;;;;;;8.81;79.81;97894.03;4993547;28;20488;-44
2023/10/30 05:50:50;;;;;;;3.83;0.95;;;;;;;8.80;79.42;97893.19;5000295;28;20042;-48
2023/10/30 05:53:17;;;;;;;5.53;1.20;;;;;;;8.79;79.68;97900.97;5001731;28;20053;-48
2023/10/30 05:55:44;;;;;;;6.97;0.70;;;;;;;8.80;79.32;97907.81;4996571;28;20064;-47
2023/10/30 05:58:12;;;;;;;3.53;0.73;;;;;;;8.79;79.82;97906.13;4993307;28;20774;-50
2023/10/30 06:00:39;;;;;;;4.55;1.00;;;;;;;8.79;79.83;97908.72;4995816;28;20046;-50
2023/10/30 06:03:09;;;;;;;4.55;0.75;;;;;;;8.80;79.47;97897.50;4992849;28;20050;-45
2023/10/30 06:05:36;;;;;;;2.05;1.17;;;;;;;8.80;79.35;97902.66;4995354;28;20057;-47
2023/10/30 06:08:03;;;;;;;2.65;1.08;;;;;;;8.80;79.38;97897.50;5001978;28;20046;-48
2023/10/30 06:10:30;;;;;;;1.95;0.63;;;;;;;8.80;79.51;97897.50;4979309;28;20051;-50
2023/10/30 06:12:56;;;;;;;11.65;5.30;;;;;;;8.82;79.68;97898.31;4987235;28;20050;-46
2023/10/30 06:15:23;;;;;;;18.95;7.53;;;;;;;8.81;79.50;97894.03;4987204;28;20396;-47
2023/10/30 06:17:50;;;;;;;18.27;6.45;;;;;;;8.82;79.68;97896.53;4991012;28;20053;-44
2023/10/30 06:20:16;;;;;;;11.95;1.70;;;;;;;8.83;79.42;97899.97;4991736;28;20046;-49
2023/10/30 06:22:43;;;;;;;2.90;0.65;;;;;;;8.82;79.76;97901.72;4994486;28;20050;-43
2023/10/30 06:25:10;;;;;;;5.65;0.90;;;;;;;8.84;79.43;97909.41;4986999;28;20050;-46
2023/10/30 06:27:37;;;;;;;4.88;1.35;;;;;;;8.85;79.35;97921.44;4999502;28;20050;-52
2023/10/30 06:30:04;;;;;;;7.18;1.35;;;;;;;8.84;79.74;97919.72;4998424;28;20053;-47
2023/10/30 06:32:31;;;;;;;2.80;1.38;;;;;;;8.87;79.78;97929.97;4990365;28;20056;-46
2023/10/30 06:34:58;;;;;;;8.27;1.15;;;;;;;8.90;79.47;97929.03;4989679;28;20126;-53
2023/10/30 06:37:25;;;;;;;5.38;1.33;;;;;;;8.93;79.92;97928.94;4995558;28;20077;-47
2023/10/30 06:39:52;;;;;;;7.20;0.95;;;;;;;8.96;79.87;97937.47;5001455;28;20058;-50
2023/10/30 06:42:18;;;;;;;7.40;1.20;;;;;;;8.98;80.01;97938.25;4999891;28;20460;-46
2023/10/30 06:44:45;;;;;;;6.32;1.40;;;;;;;9.00;79.86;97944.22;4994030;28;20042;-50
2023/10/30 06:47:12;;;;;;;4.10;0.57;;;;;;;9.06;80.18;97950.06;4975187;28;20050;-47
2023/10/30 06:49:39;;;;;;;5.10;1.75;;;;;;;9.08;80.25;97956.88;4982977;28;20046;-45
2023/10/30 06:52:06;;;;;;;6.15;0.90;;;;;;;9.12;80.32;97965.41;4979083;28;20058;-44
2023/10/30 06:54:33;;;;;;;5.93;1.65;;;;;;;9.14;80.51;97953.28;4998171;28;20046;-46
2023/10/30 06:56:59;;;;;;;4.38;0.50;;;;;;;9.19;80.21;97955.72;5003280;28;20054;-46
2023/10/30 06:59:27;;;;;;;10.88;0.80;;;;;;;9.21;80.33;97949.59;4986415;28;20511;-47
2023/10/30 07:01:53;;;;;;;6.07;1.45;;;;;;;9.24;80.35;97965.03;4985872;28;20388;-46
2023/10/30 07:04:22;;;;;;;14.10;0.65;;;;;;;9.28;80.48;97964.94;4993835;28;20058;-46
2023/10/30 07:06:50;;;;;;;4.63;0.63;;;;;;;9.30;80.48;97966.56;4984893;28;20046;-50
2023/10/30 07:09:18;;;;;;;8.88;1.13;;;;;;;9.34;80.63;97977.63;4994997;28;20050;-45
2023/10/30 07:11:45;;;;;;;10.95;1.38;;;;;;;9.35;80.31;97982.75;4983728;28;20125;-46
2023/10/30 07:14:11;;;;;;;6.03;0.95;;;;;;;9.39;80.40;97991.25;4991632;28;20050;-49
2023/10/30 07:16:38;;;;;;;8.25;1.30;;;;;;;9.42;80.28;97998.91;4998342;28;20050;-47
2023/10/30 07:19:23;;;;;;;4.63;1.05;;;;;;;9.43;79.94;97999.78;4990460;28;20046;-46
2023/10/30 07:21:50;;;;;;;6.22;1.08;;;;;;;9.46;80.24;97999.69;4991274;28;20568;-50
2023/10/30 07:24:16;;;;;;;5.40;1.33;;;;;;;9.49;80.61;97999.59;4985072;28;20061;-49
2023/10/30 07:26:43;;;;;;;4.22;0.70;;;;;;;9.49;80.17;98000.41;4989836;28;20492;-49
2023/10/30 07:29:10;;;;;;;11.38;1.80;;;;;;;9.52;80.46;98000.31;4982171;28;20090;-46
2023/10/30 07:31:37;;;;;;;6.15;0.80;;;;;;;9.56;80.21;97995.06;4989836;28;20058;-49
2023/10/30 07:34:04;;;;;;;6.65;1.67;;;;;;;9.58;80.20;97994.13;4990070;28;20534;-49
2023/10/30 07:36:31;;;;;;;12.00;1.02;;;;;;;9.61;80.58;98003.50;5001057;28;20047;-46
2023/10/30 07:38:58;;;;;;;8.85;0.93;;;;;;;9.64;80.30;98003.41;4985452;28;20050;-47
2023/10/30 07:41:25;;;;;;;7.22;1.10;;;;;;;9.68;80.52;98009.31;4985649;28;20048;-44
2023/10/30 07:43:52;;;;;;;4.40;1.00;;;;;;;9.73;80.26;98013.44;4993810;28;20052;-49
2023/10/30 07:46:19;;;;;;;3.33;1.45;;;;;;;9.76;80.33;98018.53;4996149;28;20130;-50
2023/10/30 07:48:46;;;;;;;7.18;0.98;;;;;;;9.82;80.33;98016.63;4993734;28;20070;-48
2023/10/30 07:51:13;;;;;;;6.82;1.48;;;;;;;9.91;80.25;98016.34;4993526;28;20056;-48
2023/10/30 07:53:40;;;;;;;7.18;2.05;;;;;;;9.99;79.86;98016.94;4999636;28;20490;-48
2023/10/30 07:56:06;;;;;;;6.60;0.95;;;;;;;10.07;80.40;98024.44;4986495;28;20081;-47
2023/10/30 07:58:33;;;;;;;8.60;1.00;;;;;;;10.18;80.24;98028.41;4991249;28;20042;-51
2023/10/30 08:01:00;;;;;;;7.20;0.95;;;;;;;10.25;79.73;98030.75;4990940;28;20127;-47
2023/10/30 08:03:27;;;;;;;7.82;1.13;;;;;;;10.36;80.17;98037.28;4993981;28;20084;-46
2023/10/30 08:05:54;;;;;;;4.07;0.70;;;;;;;10.44;79.38;98035.28;4979659;28;20192;-50
2023/10/30 08:08:21;;;;;;;11.35;1.08;;;;;;;10.52;80.44;98037.63;4991089;28;20058;-50
2023/10/30 08:10:48;;;;;;;9.88;0.88;;;;;;;10.61;80.40;98046.81;4988820;28;20046;-51
2023/10/30 08:13:15;;;;;;;9.55;1.38;;;;;;;10.67;79.47;98046.59;4993068;28;20050;-49
2023/10/30 08:15:41;;;;;;;6.25;2.60;;;;;;;10.74;79.32;98042.88;4989248;28;20050;-51
2023/10/30 08:18:08;;;;;;;7.00;1.40;;;;;;;10.80;79.41;98041.81;4988857;28;20142;-48
2023/10/30 08:20:35;;;;;;;3.95;0.60;;;;;;;10.87;79.78;98039.84;4995826;28;20050;-47
2023/10/30 08:23:01;;;;;;;5.18;0.98;;;;;;;10.93;80.10;98037.06;4992012;28;20050;-46
2023/10/30 08:25:28;;;;;;;2.53;0.52;;;;;;;11.03;79.52;98038.41;4986566;28;20059;-48
2023/10/30 08:28:00;;;;;;;5.65;1.38;;;;;;;11.13;79.05;98038.06;4997814;28;20050;-47
2023/10/30 08:30:26;;;;;;;11.45;1.73;;;;;;;11.21;80.04;98048.16;4999630;28;20054;-46
2023/10/30 08:32:53;;;;;;;7.78;1.35;;;;;;;11.25;78.70;98042.78;4991198;28;20314;-51
2023/10/30 08:35:20;;;;;;;5.75;1.05;;;;;;;11.28;79.37;98045.25;4985259;28;20050;-52
2023/10/30 08:37:48;;;;;;;8.70;1.48;;;;;;;11.29;79.42;98046.09;4983667;28;20051;-46
2023/10/30 08:40:15;;;;;;;4.45;0.50;;;;;;;11.28;78.52;98047.84;4990491;28;20133;-49
2023/10/30 08:42:42;;;;;;;5.07;1.45;;;;;;;11.31;79.40;98047.72;4999220;28;20496;-51
2023/10/30 08:45:10;;;;;;;3.95;1.48;;;;;;;11.38;79.19;98044.91;4988542;28;20046;-45
2023/10/30 08:47:37;;;;;;;6.10;1.00;;;;;;;11.46;78.76;98050.66;4984199;28;20076;-48
2023/10/30 08:50:06;;;;;;;6.43;0.98;;;;;;;11.59;79.29;98052.75;4991428;28;20049;-46
2023/10/30 08:52:33;;;;;;;6.95;1.13;;;;;;;11.72;78.15;98053.94;4990361;28;20054;-48
2023/10/30 08:55:00;;;;;;;2.38;1.67;;;;;;;11.83;78.50;98059.56;4987607;28;20075;-51
2023/10/30 08:57:26;;;;;;;7.50;1.35;;;;;;;11.97;78.35;98063.38;5001280;28;20057;-49
2023/10/30 08:59:53;;;;;;;6.97;1.15;;;;;;;12.16;77.42;98060.06;4990917;28;20129;-48
2023/10/30 09:02:20;;;;;;;7.80;1.02;;;;;;;12.69;77.62;98063.03;4993904;28;20053;-46
2023/10/30 09:04:49;;;;;;;5.82;0.85;;;;;;;13.86;77.31;98052.59;4986457;28;20049;-45
2023/10/30 09:07:16;;;;;;;5.45;0.93;;;;;;;15.09;75.16;98054.25;4999289;28;20077;-49
2023/10/30 09:09:43;;;;;;;4.53;1.20;;;;;;;16.25;73.40;98055.78;4990123;28;20050;-52
2023/10/30 09:12:10;;;;;;;6.28;1.15;;;;;;;17.34;71.16;98055.38;4997688;28;20503;-46
2023/10/30 09:14:36;;;;;;;6.10;0.73;;;;;;;18.28;69.24;98064.31;4983135;28;20049;-46
2023/10/30 09:17:03;;;;;;;8.32;0.70;;;;;;;19.14;67.15;98062.03;4985908;28;20047;-48
2023/10/30 09:19:30;;;;;;;4.97;0.70;;;;;;;19.95;66.15;98066.81;4990891;28;20061;-47
2023/10/30 09:21:57;;;;;;;6.05;0.65;;;;;;;20.77;64.21;98078.28;4987044;28;20058;-47
2023/10/30 09:24:24;;;;;;;6.65;0.82;;;;;;;21.43;63.33;98063.59;4994865;28;20046;-47
2023/10/30 09:26:50;;;;;;;6.80;1.15;;;;;;;22.20;61.72;98071.50;4997605;28;20085;-53
2023/10/30 09:29:17;;;;;;;8.30;1.25;;;;;;;22.88;60.62;98068.59;4988616;28;20065;-48
2023/10/30 09:31:44;;;;;;;4.40;1.08;;;;;;;23.33;59.43;98064.72;4992363;28;20061;-49
2023/10/30 09:34:11;;;;;;;4.85;1.40;;;;;;;23.62;57.79;98062.19;4994212;28;20046;-46
2023/10/30 09:36:38;;;;;;;3.20;0.88;;;;;;;23.90;57.48;98058.84;4981303;28;20058;-51
2023/10/30 09:39:05;;;;;;;4.40;1.13;;;;;;;24.22;56.72;98067.53;4988470;28;20054;-48
2023/10/30 09:41:38;;;;;;;6.80;0.98;;;;;;;24.73;56.06;98061.97;4989899;28;20058;-51
2023/10/30 09:44:09;;;;;;;2.72;0.75;;;;;;;25.11;54.98;98068.16;4983785;28;20054;-49
2023/10/30 09:46:39;;;;;;;4.88;1.00;;;;;;;25.32;52.91;98075.00;4987168;28;20046;-48
2023/10/30 09:49:08;;;;;;;8.68;1.08;;;;;;;25.31;51.83;98073.34;4989112;28;20128;-48
2023/10/30 09:51:37;;;;;;;3.97;1.55;;;;;;;25.34;51.46;98085.47;4985750;28;20503;-49
2023/10/30 09:54:05;;;;;;;5.10;1.05;;;;;;;25.28;50.44;98084.22;4990153;28;20041;-52
2023/10/30 09:56:34;;;;;;;4.30;0.90;;;;;;;25.20;50.46;98084.13;4993121;28;20054;-50
2023/10/30 09:59:01;;;;;;;6.95;1.92;;;;;;;25.18;50.59;98083.44;4983782;28;20113;-51
2023/10/30 10:01:27;;;;;;;6.38;1.02;;;;;;;25.18;50.11;98078.97;5009390;28;20066;-49
2023/10/30 10:03:55;;;;;;;4.15;0.75;;;;;;;25.35;50.50;98069.41;4977533;28;20054;-45
2023/10/30 10:06:22;;;;;;;6.45;1.33;;;;;;;25.66;51.19;98077.06;4970596;28;20046;-52
2023/10/30 10:08:49;;;;;;;5.60;1.08;;;;;;;26.12;50.06;98078.81;4983445;28;20057;-53
2023/10/30 10:11:19;;;;;;;2.97;0.75;;;;;;;26.39;48.46;98082.38;4977502;28;20054;-56
2023/10/30 10:13:48;;;;;;;6.57;1.48;;;;;;;26.47;48.16;98078.13;4977055;28;20066;-49
2023/10/30 10:16:31;;;;;;;6.18;1.13;;;;;;;26.57;47.77;98089.47;4977882;28;20050;-52
2023/10/30 10:18:58;;;;;;;3.40;0.95;;;;;;;26.71;47.13;98076.63;4978586;28;20046;-53
2023/10/30 10:21:25;;;;;;;6.40;0.60;;;;;;;26.85;46.96;98076.00;4975919;28;20051;-49
2023/10/30 10:23:51;;;;;;;3.28;0.93;;;;;;;26.85;46.73;98070.69;4971688;28;20046;-52
2023/10/30 10:26:28;;;;;;;5.35;0.90;;;;;;;26.97;46.26;98065.16;4974370;28;20287;-52
2023/10/30 10:28:55;;;;;;;3.28;1.13;;;;;;;27.13;46.21;98062.59;4975254;28;20460;-51
2023/10/30 10:31:22;;;;;;;4.95;1.13;;;;;;;27.10;45.12;98068.22;4979731;28;20137;-46
2023/10/30 10:33:49;;;;;;;3.45;1.05;;;;;;;26.73;45.10;98067.50;4978231;28;20047;-52
2023/10/30 10:36:15;;;;;;;3.83;0.88;;;;;;;26.20;45.39;98078.03;4972636;28;20141;-54
2023/10/30 10:38:57;;;;;;;3.08;1.20;;;;;;;25.45;45.30;98085.25;4987795;28;20053;-52
2023/10/30 10:41:26;;;;;;;3.15;1.00;;;;;;;24.81;46.54;98087.72;4990928;28;20242;-49
2023/10/30 10:43:55;;;;;;;4.57;0.75;;;;;;;24.12;47.43;98088.69;4993192;28;20043;-48
2023/10/30 10:46:22;;;;;;;3.67;0.70;;;;;;;23.48;47.55;98091.63;4982877;28;20051;-51
2023/10/30 10:48:49;;;;;;;4.88;0.68;;;;;;;22.71;48.22;98091.97;5001967;28;20053;-52
2023/10/30 10:51:29;;;;;;;6.72;1.75;;;;;;;22.23;49.41;98096.78;4992399;28;20065;-51
2023/10/30 10:54:03;;;;;;;4.63;0.60;;;;;;;21.77;50.20;98090.81;4991612;28;20074;-48
2023/10/30 10:56:35;;;;;;;3.25;1.35;;;;;;;21.44;51.06;98096.00;4999312;28;20049;-43
2023/10/30 10:59:06;;;;;;;5.22;0.50;;;;;;;21.19;51.48;98088.28;4992352;28;20056;-51
2023/10/30 11:01:36;;;;;;;5.35;1.23;;;;;;;20.99;52.18;98089.81;4980587;28;20077;-53
2023/10/30 11:04:05;;;;;;;3.05;0.85;;;;;;;20.85;52.30;98095.28;4986698;28;20138;-50
2023/10/30 11:06:37;;;;;;;8.50;0.73;;;;;;;20.72;52.52;98096.22;4978971;28;20060;-47
2023/10/30 11:09:12;;;;;;;8.57;1.05;;;;;;;20.61;53.71;98097.03;4986945;28;20047;-46
2023/10/30 11:12:01;;;;;;;4.32;0.80;;;;;;;20.39;53.41;98100.44;4984573;28;20062;-52
2023/10/30 11:17:05;;;;;;;4.07;1.98;;;;;;;20.05;54.31;98093.28;5024213;28;20416;-48
2023/10/30 11:19:32;;;;;;;4.95;2.28;;;;;;;20.00;54.55;98101.47;5012847;28;20145;-53
2023/10/30 11:21:59;;;;;;;3.95;3.63;;;;;;;19.93;55.07;98095.00;5015984;28;20140;-51
2023/10/30 11:24:37;;;;;;;4.65;2.67;;;;;;;19.76;54.90;98098.84;5009960;28;20130;-51
2023/10/30 11:35:22;;;;;;;1.65;1.02;;;;;;;18.89;55.13;98089.97;5073436;27;20416;-48
2023/10/30 11:37:51;;;;;;;5.57;1.23;;;;;;;18.62;55.87;98085.66;5025414;28;20510;-50
2023/10/30 11:40:18;;;;;;;4.57;1.02;;;;;;;18.44;56.32;98085.94;5025178;28;20406;-49
2023/10/30 11:42:45;;;;;;;4.95;1.67;;;;;;;18.28;57.24;98090.53;5026349;28;20057;-48
2023/10/30 11:48:03;;;;;;;8.00;0.93;;;;;;;18.01;57.81;98093.97;5060638;27;20404;-51
2023/10/30 11:50:36;;;;;;;5.50;1.20;;;;;;;18.03;58.25;98087.69;5041157;28;20137;-55
2023/10/30 11:53:08;;;;;;;6.50;1.10;;;;;;;18.05;58.57;98087.59;5054663;28;20051;-45
2023/10/30 11:55:37;;;;;;;7.32;1.25;;;;;;;18.01;58.23;98083.50;5060028;28;20049;-50